sensor_id;sensor_type;location;lat;lon;timestamp;P1;durP1;ratioP1;P2;durP2;ratioP2
1533;SDS011;760;48.822;9.304;2023-04-08T04:04:57;8.55;;;6.75;;
1533;SDS011;760;48.822;9.304;2023-04-08T04:07:23;10.30;;;7.70;;
1533;SDS011;760;48.822;9.304;2023-04-08T04:09:48;8.90;;;6.60;;
1533;SDS011;760;48.822;9.304;2023-04-08T04:12:18;9.85;;;7.25;;
1533;SDS011;760;48.822;9.304;2023-04-08T04:14:43;10.80;;;8.40;;
1533;SDS011;760;48.822;9.304;2023-04-08T04:17:09;9.27;;;7.00;;
1533;SDS011;760;48.822;9.304;2023-04-08T04:19:35;8.93;;;6.67;;
1533;SDS011;760;48.822;9.304;2023-04-08T04:22:00;9.70;;;6.50;;
1533;SDS011;760;48.822;9.304;2023-04-08T04:24:26;13.53;;;7.17;;
1533;SDS011;760;48.822;9.304;2023-04-08T04:26:51;10.57;;;6.13;;
1533;SDS011;760;48.822;9.304;2023-04-08T04:29:17;9.27;;;6.13;;
1533;SDS011;760;48.822;9.304;2023-04-08T04:31:42;10.10;;;7.37;;
1533;SDS011;760;48.822;9.304;2023-04-08T04:34:08;10.20;;;7.80;;
1533;SDS011;760;48.822;9.304;2023-04-08T04:36:34;12.63;;;6.83;;
1533;SDS011;760;48.822;9.304;2023-04-08T04:38:59;9.73;;;6.37;;
1533;SDS011;760;48.822;9.304;2023-04-08T04:41:25;8.40;;;7.53;;
1533;SDS011;760;48.822;9.304;2023-04-08T04:43:51;10.60;;;7.83;;
1533;SDS011;760;48.822;9.304;2023-04-08T04:46:16;10.70;;;7.37;;
1533;SDS011;760;48.822;9.304;2023-04-08T04:48:42;11.43;;;7.90;;
1533;SDS011;760;48.822;9.304;2023-04-08T04:51:08;9.80;;;7.97;;
1533;SDS011;760;48.822;9.304;2023-04-08T04:53:33;12.10;;;7.20;;
1533;SDS011;760;48.822;9.304;2023-04-08T04:55:59;9.80;;;7.40;;
1533;SDS011;760;48.822;9.304;2023-04-08T04:58:28;12.02;;;7.95;;
1533;SDS011;760;48.822;9.304;2023-04-08T05:00:54;10.95;;;7.43;;
1533;SDS011;760;48.822;9.304;2023-04-08T05:03:20;13.18;;;9.05;;
1533;SDS011;760;48.822;9.304;2023-04-08T05:05:49;10.40;;;8.33;;
1533;SDS011;760;48.822;9.304;2023-04-08T05:08:18;11.35;;;7.38;;
1533;SDS011;760;48.822;9.304;2023-04-08T05:10:44;9.40;;;7.85;;
1533;SDS011;760;48.822;9.304;2023-04-08T05:13:09;12.30;;;8.27;;
1533;SDS011;760;48.822;9.304;2023-04-08T05:15:35;11.50;;;8.23;;
1533;SDS011;760;48.822;9.304;2023-04-08T05:18:01;11.13;;;6.60;;
1533;SDS011;760;48.822;9.304;2023-04-08T05:20:26;17.53;;;8.50;;
1533;SDS011;760;48.822;9.304;2023-04-08T05:22:52;12.90;;;8.67;;
1533;SDS011;760;48.822;9.304;2023-04-08T05:25:18;9.40;;;7.67;;
1533;SDS011;760;48.822;9.304;2023-04-08T05:27:44;10.37;;;7.27;;
1533;SDS011;760;48.822;9.304;2023-04-08T05:30:10;16.70;;;8.70;;
1533;SDS011;760;48.822;9.304;2023-04-08T05:32:36;13.52;;;9.88;;
1533;SDS011;760;48.822;9.304;2023-04-08T05:35:02;16.73;;;8.90;;
1533;SDS011;760;48.822;9.304;2023-04-08T05:37:28;8.85;;;7.20;;
1533;SDS011;760;48.822;9.304;2023-04-08T05:39:54;11.37;;;8.47;;
1533;SDS011;760;48.822;9.304;2023-04-08T05:42:19;15.40;;;9.37;;
1533;SDS011;760;48.822;9.304;2023-04-08T05:44:45;14.77;;;8.23;;
1533;SDS011;760;48.822;9.304;2023-04-08T05:47:11;11.83;;;6.73;;
1533;SDS011;760;48.822;9.304;2023-04-08T05:49:37;11.90;;;8.27;;
1533;SDS011;760;48.822;9.304;2023-04-08T05:52:02;13.80;;;8.70;;
1533;SDS011;760;48.822;9.304;2023-04-08T05:54:28;13.50;;;10.00;;
1533;SDS011;760;48.822;9.304;2023-04-08T05:56:53;11.27;;;7.70;;
1533;SDS011;760;48.822;9.304;2023-04-08T05:59:19;14.03;;;9.00;;
1533;SDS011;760;48.822;9.304;2023-04-08T06:01:45;15.57;;;9.17;;
1533;SDS011;760;48.822;9.304;2023-04-08T06:04:10;10.10;;;8.17;;
1533;SDS011;760;48.822;9.304;2023-04-08T06:06:37;11.47;;;8.40;;
1533;SDS011;760;48.822;9.304;2023-04-08T06:09:03;18.08;;;8.85;;
1533;SDS011;760;48.822;9.304;2023-04-08T06:11:29;13.93;;;9.87;;
1533;SDS011;760;48.822;9.304;2023-04-08T06:13:55;12.13;;;8.97;;
1533;SDS011;760;48.822;9.304;2023-04-08T06:16:20;15.10;;;8.10;;
1533;SDS011;760;48.822;9.304;2023-04-08T06:18:46;10.90;;;8.67;;
1533;SDS011;760;48.822;9.304;2023-04-08T06:21:12;12.50;;;7.93;;
1533;SDS011;760;48.822;9.304;2023-04-08T06:23:37;8.93;;;7.77;;
1533;SDS011;760;48.822;9.304;2023-04-08T06:26:03;9.90;;;7.20;;
1533;SDS011;760;48.822;9.304;2023-04-08T06:28:29;11.73;;;8.10;;
1533;SDS011;760;48.822;9.304;2023-04-08T06:30:55;10.03;;;7.50;;
1533;SDS011;760;48.822;9.304;2023-04-08T06:33:21;12.07;;;7.88;;
1533;SDS011;760;48.822;9.304;2023-04-08T06:35:46;12.90;;;8.17;;
1533;SDS011;760;48.822;9.304;2023-04-08T06:38:12;7.90;;;6.70;;
1533;SDS011;760;48.822;9.304;2023-04-08T06:40:38;9.60;;;7.77;;
1533;SDS011;760;48.822;9.304;2023-04-08T06:43:04;10.13;;;7.28;;
1533;SDS011;760;48.822;9.304;2023-04-08T06:45:33;11.18;;;8.10;;
1533;SDS011;760;48.822;9.304;2023-04-08T06:47:59;14.85;;;7.38;;
1533;SDS011;760;48.822;9.304;2023-04-08T06:50:24;9.70;;;7.40;;
1533;SDS011;760;48.822;9.304;2023-04-08T06:52:50;9.10;;;6.80;;
1533;SDS011;760;48.822;9.304;2023-04-08T06:55:16;10.53;;;7.27;;
1533;SDS011;760;48.822;9.304;2023-04-08T06:57:41;8.53;;;6.73;;
1533;SDS011;760;48.822;9.304;2023-04-08T07:00:07;10.17;;;7.53;;
1533;SDS011;760;48.822;9.304;2023-04-08T07:02:33;8.45;;;6.93;;
1533;SDS011;760;48.822;9.304;2023-04-08T07:04:59;8.10;;;5.90;;
1533;SDS011;760;48.822;9.304;2023-04-08T07:07:25;8.17;;;6.37;;
1533;SDS011;760;48.822;9.304;2023-04-08T07:09:50;9.00;;;6.27;;
1533;SDS011;760;48.822;9.304;2023-04-08T07:12:16;9.80;;;6.50;;
1533;SDS011;760;48.822;9.304;2023-04-08T07:14:42;9.48;;;7.90;;
1533;SDS011;760;48.822;9.304;2023-04-08T07:17:07;9.77;;;6.97;;
1533;SDS011;760;48.822;9.304;2023-04-08T07:19:33;8.83;;;6.87;;
1533;SDS011;760;48.822;9.304;2023-04-08T07:21:58;12.17;;;8.57;;
1533;SDS011;760;48.822;9.304;2023-04-08T07:24:24;8.07;;;6.10;;
1533;SDS011;760;48.822;9.304;2023-04-08T07:26:51;8.50;;;6.82;;
1533;SDS011;760;48.822;9.304;2023-04-08T07:29:16;8.30;;;6.40;;
1533;SDS011;760;48.822;9.304;2023-04-08T07:31:42;8.20;;;6.80;;
1533;SDS011;760;48.822;9.304;2023-04-08T07:34:08;8.40;;;7.13;;
1533;SDS011;760;48.822;9.304;2023-04-08T07:36:34;8.73;;;7.00;;
1533;SDS011;760;48.822;9.304;2023-04-08T07:39:00;8.10;;;6.17;;
1533;SDS011;760;48.822;9.304;2023-04-08T07:41:26;12.60;;;7.57;;
1533;SDS011;760;48.822;9.304;2023-04-08T07:43:52;8.37;;;6.17;;
1533;SDS011;760;48.822;9.304;2023-04-08T07:46:17;9.80;;;7.60;;
1533;SDS011;760;48.822;9.304;2023-04-08T07:48:44;8.97;;;5.70;;
1533;SDS011;760;48.822;9.304;2023-04-08T07:51:09;9.60;;;8.60;;
1533;SDS011;760;48.822;9.304;2023-04-08T07:53:35;7.20;;;6.03;;
1533;SDS011;760;48.822;9.304;2023-04-08T07:56:01;6.60;;;6.00;;
1533;SDS011;760;48.822;9.304;2023-04-08T07:58:29;11.00;;;7.83;;
1533;SDS011;760;48.822;9.304;2023-04-08T08:00:56;8.10;;;6.60;;
1533;SDS011;760;48.822;9.304;2023-04-08T08:03:22;9.80;;;7.80;;
1533;SDS011;760;48.822;9.304;2023-04-08T08:05:48;14.83;;;7.50;;
1533;SDS011;760;48.822;9.304;2023-04-08T08:08:13;10.23;;;7.13;;
1533;SDS011;760;48.822;9.304;2023-04-08T08:10:39;7.33;;;6.10;;
1533;SDS011;760;48.822;9.304;2023-04-08T08:13:05;11.70;;;7.47;;
1533;SDS011;760;48.822;9.304;2023-04-08T08:15:32;7.80;;;6.33;;
1533;SDS011;760;48.822;9.304;2023-04-08T08:17:58;9.60;;;7.30;;
1533;SDS011;760;48.822;9.304;2023-04-08T08:20:23;6.83;;;6.03;;
1533;SDS011;760;48.822;9.304;2023-04-08T08:22:49;8.53;;;6.87;;
1533;SDS011;760;48.822;9.304;2023-04-08T08:25:15;8.87;;;6.97;;
1533;SDS011;760;48.822;9.304;2023-04-08T08:27:41;10.90;;;8.70;;
1533;SDS011;760;48.822;9.304;2023-04-08T08:30:07;8.57;;;7.50;;
1533;SDS011;760;48.822;9.304;2023-04-08T08:32:33;10.83;;;8.73;;
1533;SDS011;760;48.822;9.304;2023-04-08T08:34:59;7.27;;;6.23;;
1533;SDS011;760;48.822;9.304;2023-04-08T08:37:25;8.50;;;6.70;;
1533;SDS011;760;48.822;9.304;2023-04-08T08:39:51;10.80;;;7.33;;
1533;SDS011;760;48.822;9.304;2023-04-08T08:42:23;8.77;;;7.13;;
1533;SDS011;760;48.822;9.304;2023-04-08T08:44:49;8.97;;;7.20;;
1533;SDS011;760;48.822;9.304;2023-04-08T08:47:15;11.30;;;7.20;;
1533;SDS011;760;48.822;9.304;2023-04-08T08:49:41;14.80;;;9.10;;
1533;SDS011;760;48.822;9.304;2023-04-08T08:52:08;9.17;;;7.00;;
1533;SDS011;760;48.822;9.304;2023-04-08T08:54:33;7.63;;;6.47;;
1533;SDS011;760;48.822;9.304;2023-04-08T08:56:59;8.40;;;6.47;;
1533;SDS011;760;48.822;9.304;2023-04-08T08:59:25;15.07;;;9.03;;
1533;SDS011;760;48.822;9.304;2023-04-08T09:01:50;8.37;;;7.50;;
1533;SDS011;760;48.822;9.304;2023-04-08T09:04:17;6.93;;;6.30;;
1533;SDS011;760;48.822;9.304;2023-04-08T09:06:44;7.77;;;6.97;;
1533;SDS011;760;48.822;9.304;2023-04-08T09:09:11;8.30;;;6.90;;
1533;SDS011;760;48.822;9.304;2023-04-08T09:11:38;8.73;;;7.00;;
1533;SDS011;760;48.822;9.304;2023-04-08T09:14:26;11.50;;;8.07;;
1533;SDS011;760;48.822;9.304;2023-04-08T09:16:51;8.60;;;7.83;;
1533;SDS011;760;48.822;9.304;2023-04-08T09:19:17;10.20;;;7.87;;
1533;SDS011;760;48.822;9.304;2023-04-08T09:21:43;8.00;;;7.00;;
1533;SDS011;760;48.822;9.304;2023-04-08T09:24:09;8.70;;;7.80;;
1533;SDS011;760;48.822;9.304;2023-04-08T09:26:53;8.00;;;7.20;;
1533;SDS011;760;48.822;9.304;2023-04-08T09:29:18;7.85;;;7.15;;
1533;SDS011;760;48.822;9.304;2023-04-08T09:31:51;8.60;;;7.05;;
1533;SDS011;760;48.822;9.304;2023-04-08T09:34:18;7.33;;;6.63;;
1533;SDS011;760;48.822;9.304;2023-04-08T09:36:45;8.20;;;7.13;;
1533;SDS011;760;48.822;9.304;2023-04-08T09:39:13;8.17;;;7.37;;
1533;SDS011;760;48.822;9.304;2023-04-08T09:41:39;8.67;;;7.27;;
1533;SDS011;760;48.822;9.304;2023-04-08T09:44:07;7.87;;;7.17;;
1533;SDS011;760;48.822;9.304;2023-04-08T09:49:21;6.87;;;6.27;;
1533;SDS011;760;48.822;9.304;2023-04-08T09:52:04;8.67;;;6.50;;
1533;SDS011;760;48.822;9.304;2023-04-08T09:54:43;7.97;;;7.17;;
1533;SDS011;760;48.822;9.304;2023-04-08T09:57:16;7.80;;;7.10;;
1533;SDS011;760;48.822;9.304;2023-04-08T10:00:04;9.90;;;8.10;;
1533;SDS011;760;48.822;9.304;2023-04-08T10:02:51;8.67;;;7.83;;
1533;SDS011;760;48.822;9.304;2023-04-08T10:05:29;8.20;;;6.60;;
1533;SDS011;760;48.822;9.304;2023-04-08T10:07:56;9.57;;;8.07;;
1533;SDS011;760;48.822;9.304;2023-04-08T10:10:22;7.60;;;6.87;;
1533;SDS011;760;48.822;9.304;2023-04-08T10:12:49;8.77;;;7.87;;
1533;SDS011;760;48.822;9.304;2023-04-08T10:15:25;9.40;;;8.00;;
1533;SDS011;760;48.822;9.304;2023-04-08T10:17:55;9.63;;;8.40;;
1533;SDS011;760;48.822;9.304;2023-04-08T10:20:44;8.10;;;7.00;;
1533;SDS011;760;48.822;9.304;2023-04-08T10:23:12;8.80;;;7.07;;
1533;SDS011;760;48.822;9.304;2023-04-08T10:30:46;7.80;;;6.67;;
1533;SDS011;760;48.822;9.304;2023-04-08T10:33:16;7.67;;;6.50;;
1533;SDS011;760;48.822;9.304;2023-04-08T10:38:39;8.57;;;6.97;;
1533;SDS011;760;48.822;9.304;2023-04-08T10:41:11;8.33;;;5.73;;
1533;SDS011;760;48.822;9.304;2023-04-08T10:43:45;7.97;;;6.40;;
1533;SDS011;760;48.822;9.304;2023-04-08T10:46:11;7.27;;;6.10;;
1533;SDS011;760;48.822;9.304;2023-04-08T10:48:37;6.70;;;5.93;;
1533;SDS011;760;48.822;9.304;2023-04-08T10:51:03;9.83;;;7.13;;
1533;SDS011;760;48.822;9.304;2023-04-08T10:56:29;8.20;;;6.83;;
1533;SDS011;760;48.822;9.304;2023-04-08T10:58:52;7.63;;;6.30;;
1533;SDS011;760;48.822;9.304;2023-04-08T11:01:20;7.77;;;5.90;;
1533;SDS011;760;48.822;9.304;2023-04-08T11:03:46;10.30;;;7.63;;
1533;SDS011;760;48.822;9.304;2023-04-08T11:06:12;7.60;;;6.90;;
1533;SDS011;760;48.822;9.304;2023-04-08T11:08:38;7.30;;;6.60;;
1533;SDS011;760;48.822;9.304;2023-04-08T11:11:05;7.50;;;6.80;;
1533;SDS011;760;48.822;9.304;2023-04-08T11:13:41;8.20;;;6.93;;
1533;SDS011;760;48.822;9.304;2023-04-08T11:16:08;7.90;;;6.80;;
1533;SDS011;760;48.822;9.304;2023-04-08T11:18:34;7.30;;;6.67;;
1533;SDS011;760;48.822;9.304;2023-04-08T11:21:03;6.13;;;5.53;;
1533;SDS011;760;48.822;9.304;2023-04-08T11:23:34;9.23;;;7.03;;
1533;SDS011;760;48.822;9.304;2023-04-08T11:26:00;14.03;;;6.77;;
1533;SDS011;760;48.822;9.304;2023-04-08T11:28:26;8.07;;;5.87;;
1533;SDS011;760;48.822;9.304;2023-04-08T11:30:52;7.60;;;6.77;;
1533;SDS011;760;48.822;9.304;2023-04-08T11:33:19;6.70;;;6.03;;
1533;SDS011;760;48.822;9.304;2023-04-08T11:35:48;5.97;;;5.40;;
1533;SDS011;760;48.822;9.304;2023-04-08T11:38:15;7.07;;;6.33;;
1533;SDS011;760;48.822;9.304;2023-04-08T11:40:51;8.00;;;6.20;;
1533;SDS011;760;48.822;9.304;2023-04-08T11:43:21;6.50;;;5.90;;
1533;SDS011;760;48.822;9.304;2023-04-08T11:45:47;10.13;;;5.80;;
1533;SDS011;760;48.822;9.304;2023-04-08T11:48:13;8.63;;;6.60;;
1533;SDS011;760;48.822;9.304;2023-04-08T11:50:40;10.37;;;6.30;;
1533;SDS011;760;48.822;9.304;2023-04-08T11:53:25;7.37;;;6.67;;
1533;SDS011;760;48.822;9.304;2023-04-08T11:55:51;6.10;;;5.50;;
1533;SDS011;760;48.822;9.304;2023-04-08T11:58:16;6.73;;;5.97;;
1533;SDS011;760;48.822;9.304;2023-04-08T12:00:42;7.10;;;6.40;;
1533;SDS011;760;48.822;9.304;2023-04-08T12:03:09;7.93;;;5.90;;
1533;SDS011;760;48.822;9.304;2023-04-08T12:05:36;7.20;;;6.47;;
1533;SDS011;760;48.822;9.304;2023-04-08T12:08:01;5.70;;;5.30;;
1533;SDS011;760;48.822;9.304;2023-04-08T12:10:27;8.97;;;5.77;;
1533;SDS011;760;48.822;9.304;2023-04-08T12:12:53;6.67;;;6.07;;
1533;SDS011;760;48.822;9.304;2023-04-08T12:15:19;7.03;;;6.33;;
1533;SDS011;760;48.822;9.304;2023-04-08T12:17:44;8.67;;;6.50;;
1533;SDS011;760;48.822;9.304;2023-04-08T12:20:10;6.33;;;5.73;;
1533;SDS011;760;48.822;9.304;2023-04-08T12:22:37;6.50;;;5.63;;
1533;SDS011;760;48.822;9.304;2023-04-08T12:25:03;6.30;;;5.70;;
1533;SDS011;760;48.822;9.304;2023-04-08T12:27:30;12.53;;;6.33;;
1533;SDS011;760;48.822;9.304;2023-04-08T12:29:59;6.83;;;6.10;;
1533;SDS011;760;48.822;9.304;2023-04-08T12:32:26;8.10;;;5.73;;
1533;SDS011;760;48.822;9.304;2023-04-08T12:34:52;7.63;;;6.80;;
1533;SDS011;760;48.822;9.304;2023-04-08T12:37:17;8.50;;;7.20;;
1533;SDS011;760;48.822;9.304;2023-04-08T12:39:44;5.57;;;5.07;;
1533;SDS011;760;48.822;9.304;2023-04-08T12:42:10;6.80;;;6.20;;
1533;SDS011;760;48.822;9.304;2023-04-08T12:44:36;8.83;;;5.97;;
1533;SDS011;760;48.822;9.304;2023-04-08T12:47:01;8.40;;;6.93;;
1533;SDS011;760;48.822;9.304;2023-04-08T12:49:27;7.10;;;6.40;;
1533;SDS011;760;48.822;9.304;2023-04-08T12:51:52;6.47;;;5.87;;
1533;SDS011;760;48.822;9.304;2023-04-08T12:54:19;10.00;;;7.73;;
1533;SDS011;760;48.822;9.304;2023-04-08T12:56:45;6.43;;;5.73;;
1533;SDS011;760;48.822;9.304;2023-04-08T12:59:12;8.87;;;6.83;;
1533;SDS011;760;48.822;9.304;2023-04-08T13:01:38;8.23;;;7.00;;
1533;SDS011;760;48.822;9.304;2023-04-08T13:04:04;6.70;;;6.00;;
1533;SDS011;760;48.822;9.304;2023-04-08T13:06:30;7.30;;;6.07;;
1533;SDS011;760;48.822;9.304;2023-04-08T13:08:56;7.23;;;6.50;;
1533;SDS011;760;48.822;9.304;2023-04-08T13:11:21;7.30;;;6.60;;
1533;SDS011;760;48.822;9.304;2023-04-08T13:13:47;9.20;;;8.20;;
1533;SDS011;760;48.822;9.304;2023-04-08T13:16:13;9.43;;;6.87;;
1533;SDS011;760;48.822;9.304;2023-04-08T13:18:39;7.47;;;6.50;;
1533;SDS011;760;48.822;9.304;2023-04-08T13:21:08;8.77;;;6.13;;
1533;SDS011;760;48.822;9.304;2023-04-08T13:23:34;7.57;;;6.20;;
1533;SDS011;760;48.822;9.304;2023-04-08T13:25:59;10.63;;;6.60;;
1533;SDS011;760;48.822;9.304;2023-04-08T13:28:25;7.20;;;6.10;;
1533;SDS011;760;48.822;9.304;2023-04-08T13:30:51;6.53;;;5.83;;
1533;SDS011;760;48.822;9.304;2023-04-08T13:33:17;8.17;;;7.00;;
1533;SDS011;760;48.822;9.304;2023-04-08T13:35:43;7.70;;;6.50;;
1533;SDS011;760;48.822;9.304;2023-04-08T13:38:08;8.97;;;6.47;;
1533;SDS011;760;48.822;9.304;2023-04-08T13:40:34;6.97;;;6.17;;
1533;SDS011;760;48.822;9.304;2023-04-08T13:43:00;7.20;;;6.50;;
1533;SDS011;760;48.822;9.304;2023-04-08T13:45:26;5.20;;;4.70;;
1533;SDS011;760;48.822;9.304;2023-04-08T13:47:51;10.03;;;6.53;;
1533;SDS011;760;48.822;9.304;2023-04-08T13:50:17;6.60;;;6.00;;
1533;SDS011;760;48.822;9.304;2023-04-08T13:52:43;5.93;;;5.33;;
1533;SDS011;760;48.822;9.304;2023-04-08T13:55:08;6.47;;;5.73;;
1533;SDS011;760;48.822;9.304;2023-04-08T13:57:34;5.97;;;5.43;;
1533;SDS011;760;48.822;9.304;2023-04-08T14:00:00;7.03;;;6.23;;
1533;SDS011;760;48.822;9.304;2023-04-08T14:02:26;6.37;;;5.77;;
1533;SDS011;760;48.822;9.304;2023-04-08T14:04:52;6.40;;;5.00;;
1533;SDS011;760;48.822;9.304;2023-04-08T14:07:17;6.03;;;5.50;;
1533;SDS011;760;48.822;9.304;2023-04-08T14:09:43;6.70;;;6.10;;
1533;SDS011;760;48.822;9.304;2023-04-08T14:12:09;6.40;;;5.73;;
1533;SDS011;760;48.822;9.304;2023-04-08T14:14:35;7.40;;;5.80;;
1533;SDS011;760;48.822;9.304;2023-04-08T14:17:00;6.23;;;5.73;;
1533;SDS011;760;48.822;9.304;2023-04-08T14:19:26;9.57;;;5.90;;
1533;SDS011;760;48.822;9.304;2023-04-08T14:21:51;7.50;;;6.20;;
1533;SDS011;760;48.822;9.304;2023-04-08T14:24:17;7.07;;;6.03;;
1533;SDS011;760;48.822;9.304;2023-04-08T14:26:43;7.70;;;5.80;;
1533;SDS011;760;48.822;9.304;2023-04-08T14:29:09;5.53;;;5.03;;
1533;SDS011;760;48.822;9.304;2023-04-08T14:31:35;6.23;;;5.20;;
1533;SDS011;760;48.822;9.304;2023-04-08T14:34:01;7.97;;;6.20;;
1533;SDS011;760;48.822;9.304;2023-04-08T14:36:27;7.00;;;5.53;;
1533;SDS011;760;48.822;9.304;2023-04-08T14:38:54;6.37;;;5.57;;
1533;SDS011;760;48.822;9.304;2023-04-08T14:41:20;8.87;;;5.33;;
1533;SDS011;760;48.822;9.304;2023-04-08T14:43:46;5.93;;;4.80;;
1533;SDS011;760;48.822;9.304;2023-04-08T14:46:12;6.00;;;4.97;;
1533;SDS011;760;48.822;9.304;2023-04-08T14:48:38;6.80;;;6.03;;
1533;SDS011;760;48.822;9.304;2023-04-08T14:51:03;6.67;;;4.77;;
1533;SDS011;760;48.822;9.304;2023-04-08T14:53:33;5.33;;;4.50;;
1533;SDS011;760;48.822;9.304;2023-04-08T14:55:58;4.87;;;4.37;;
1533;SDS011;760;48.822;9.304;2023-04-08T14:58:24;5.13;;;4.70;;
1533;SDS011;760;48.822;9.304;2023-04-08T15:00:50;8.93;;;5.60;;
1533;SDS011;760;48.822;9.304;2023-04-08T15:03:16;4.27;;;3.87;;
1533;SDS011;760;48.822;9.304;2023-04-08T15:05:42;5.20;;;4.70;;
1533;SDS011;760;48.822;9.304;2023-04-08T15:08:09;5.30;;;4.80;;
1533;SDS011;760;48.822;9.304;2023-04-08T15:10:35;4.20;;;3.80;;
1533;SDS011;760;48.822;9.304;2023-04-08T15:13:01;4.73;;;3.90;;
1533;SDS011;760;48.822;9.304;2023-04-08T15:15:26;3.60;;;3.30;;
1533;SDS011;760;48.822;9.304;2023-04-08T15:17:52;4.30;;;3.17;;
1533;SDS011;760;48.822;9.304;2023-04-08T15:20:18;3.87;;;3.40;;
1533;SDS011;760;48.822;9.304;2023-04-08T15:22:44;2.83;;;2.63;;
1533;SDS011;760;48.822;9.304;2023-04-08T15:25:10;3.10;;;2.90;;
1533;SDS011;760;48.822;9.304;2023-04-08T15:27:36;4.20;;;3.40;;
1533;SDS011;760;48.822;9.304;2023-04-08T15:30:03;3.07;;;2.87;;
1533;SDS011;760;48.822;9.304;2023-04-08T15:32:29;3.70;;;3.40;;
1533;SDS011;760;48.822;9.304;2023-04-08T15:34:56;3.70;;;3.30;;
1533;SDS011;760;48.822;9.304;2023-04-08T15:37:21;3.03;;;2.70;;
1533;SDS011;760;48.822;9.304;2023-04-08T15:39:47;2.90;;;2.70;;
1533;SDS011;760;48.822;9.304;2023-04-08T15:42:13;4.63;;;3.90;;
1533;SDS011;760;48.822;9.304;2023-04-08T15:44:38;3.33;;;3.13;;
1533;SDS011;760;48.822;9.304;2023-04-08T15:47:04;2.70;;;2.50;;
1533;SDS011;760;48.822;9.304;2023-04-08T15:49:30;3.90;;;3.60;;
1533;SDS011;760;48.822;9.304;2023-04-08T15:51:56;2.97;;;2.77;;
1533;SDS011;760;48.822;9.304;2023-04-08T15:54:23;3.30;;;3.10;;
1533;SDS011;760;48.822;9.304;2023-04-08T15:56:49;4.17;;;3.77;;
1533;SDS011;760;48.822;9.304;2023-04-08T15:59:15;3.63;;;3.27;;
1533;SDS011;760;48.822;9.304;2023-04-08T16:01:40;4.60;;;4.20;;
1533;SDS011;760;48.822;9.304;2023-04-08T16:04:06;4.13;;;3.77;;
1533;SDS011;760;48.822;9.304;2023-04-08T16:06:32;4.73;;;3.73;;
1533;SDS011;760;48.822;9.304;2023-04-08T16:08:58;4.30;;;3.97;;
1533;SDS011;760;48.822;9.304;2023-04-08T16:11:25;4.87;;;3.70;;
1533;SDS011;760;48.822;9.304;2023-04-08T16:13:52;3.60;;;3.30;;
1533;SDS011;760;48.822;9.304;2023-04-08T16:16:18;4.80;;;3.90;;
1533;SDS011;760;48.822;9.304;2023-04-08T16:18:43;4.30;;;3.93;;
1533;SDS011;760;48.822;9.304;2023-04-08T16:21:10;4.17;;;3.80;;
1533;SDS011;760;48.822;9.304;2023-04-08T16:23:36;6.30;;;3.80;;
1533;SDS011;760;48.822;9.304;2023-04-08T16:26:05;3.22;;;3.03;;
1533;SDS011;760;48.822;9.304;2023-04-08T16:28:35;3.88;;;3.58;;
1533;SDS011;760;48.822;9.304;2023-04-08T16:31:01;3.15;;;2.92;;
1533;SDS011;760;48.822;9.304;2023-04-08T16:33:28;4.10;;;3.75;;
1533;SDS011;760;48.822;9.304;2023-04-08T16:35:58;3.95;;;3.55;;
1533;SDS011;760;48.822;9.304;2023-04-08T16:38:24;4.28;;;3.88;;
1533;SDS011;760;48.822;9.304;2023-04-08T16:40:51;4.10;;;3.72;;
1533;SDS011;760;48.822;9.304;2023-04-08T16:43:17;3.38;;;3.10;;
1533;SDS011;760;48.822;9.304;2023-04-08T16:45:44;3.50;;;2.97;;
1533;SDS011;760;48.822;9.304;2023-04-08T16:48:10;4.30;;;3.90;;
1533;SDS011;760;48.822;9.304;2023-04-08T16:50:39;3.83;;;3.53;;
1533;SDS011;760;48.822;9.304;2023-04-08T16:53:05;5.28;;;3.97;;
1533;SDS011;760;48.822;9.304;2023-04-08T16:55:31;5.43;;;3.77;;
1533;SDS011;760;48.822;9.304;2023-04-08T16:57:57;3.63;;;3.33;;
1533;SDS011;760;48.822;9.304;2023-04-08T17:00:27;4.18;;;3.78;;
1533;SDS011;760;48.822;9.304;2023-04-08T17:02:53;3.80;;;3.50;;
1533;SDS011;760;48.822;9.304;2023-04-08T17:05:24;3.55;;;3.25;;
1533;SDS011;760;48.822;9.304;2023-04-08T17:07:50;4.47;;;4.07;;
1533;SDS011;760;48.822;9.304;2023-04-08T17:10:16;3.83;;;3.50;;
1533;SDS011;760;48.822;9.304;2023-04-08T17:12:42;3.72;;;3.42;;
1533;SDS011;760;48.822;9.304;2023-04-08T17:15:09;3.60;;;3.30;;
1533;SDS011;760;48.822;9.304;2023-04-08T17:17:37;5.70;;;4.10;;
1533;SDS011;760;48.822;9.304;2023-04-08T17:20:02;4.30;;;3.92;;
1533;SDS011;760;48.822;9.304;2023-04-08T17:22:29;3.75;;;3.55;;
1533;SDS011;760;48.822;9.304;2023-04-08T17:24:55;4.10;;;3.80;;
1533;SDS011;760;48.822;9.304;2023-04-08T17:27:20;5.00;;;4.60;;
1533;SDS011;760;48.822;9.304;2023-04-08T17:29:47;4.53;;;4.05;;
1533;SDS011;760;48.822;9.304;2023-04-08T17:32:13;4.10;;;3.70;;
1533;SDS011;760;48.822;9.304;2023-04-08T17:34:39;3.50;;;3.27;;
1533;SDS011;760;48.822;9.304;2023-04-08T17:37:05;4.10;;;3.80;;
1533;SDS011;760;48.822;9.304;2023-04-08T17:39:31;3.42;;;3.22;;
1533;SDS011;760;48.822;9.304;2023-04-08T17:41:57;4.00;;;3.70;;
1533;SDS011;760;48.822;9.304;2023-04-08T17:44:23;3.87;;;3.57;;
1533;SDS011;760;48.822;9.304;2023-04-08T17:46:54;4.15;;;3.85;;
1533;SDS011;760;48.822;9.304;2023-04-08T17:49:20;3.65;;;3.35;;
1533;SDS011;760;48.822;9.304;2023-04-08T17:51:46;5.18;;;4.38;;
1533;SDS011;760;48.822;9.304;2023-04-08T17:54:12;5.10;;;4.70;;
1533;SDS011;760;48.822;9.304;2023-04-08T17:56:38;4.87;;;4.47;;
1533;SDS011;760;48.822;9.304;2023-04-08T17:59:03;5.70;;;5.17;;
1533;SDS011;760;48.822;9.304;2023-04-08T18:01:29;5.20;;;4.30;;
1533;SDS011;760;48.822;9.304;2023-04-08T18:03:55;4.30;;;3.90;;
1533;SDS011;760;48.822;9.304;2023-04-08T18:06:21;3.30;;;3.10;;
1533;SDS011;760;48.822;9.304;2023-04-08T18:08:46;4.73;;;4.33;;
1533;SDS011;760;48.822;9.304;2023-04-08T18:11:12;5.65;;;5.10;;
1533;SDS011;760;48.822;9.304;2023-04-08T18:13:38;4.27;;;3.97;;
1533;SDS011;760;48.822;9.304;2023-04-08T18:16:03;5.20;;;4.70;;
1533;SDS011;760;48.822;9.304;2023-04-08T18:18:29;4.75;;;4.35;;
1533;SDS011;760;48.822;9.304;2023-04-08T18:20:55;5.10;;;4.70;;
1533;SDS011;760;48.822;9.304;2023-04-08T18:23:21;5.03;;;4.53;;
1533;SDS011;760;48.822;9.304;2023-04-08T18:25:47;4.90;;;4.13;;
1533;SDS011;760;48.822;9.304;2023-04-08T18:28:14;4.97;;;4.30;;
1533;SDS011;760;48.822;9.304;2023-04-08T18:30:39;3.33;;;3.03;;
1533;SDS011;760;48.822;9.304;2023-04-08T18:33:07;4.30;;;3.45;;
1533;SDS011;760;48.822;9.304;2023-04-08T18:35:32;5.30;;;4.53;;
1533;SDS011;760;48.822;9.304;2023-04-08T18:37:58;5.37;;;4.87;;
1533;SDS011;760;48.822;9.304;2023-04-08T18:40:23;5.40;;;5.00;;
1533;SDS011;760;48.822;9.304;2023-04-08T18:42:49;7.57;;;6.10;;
1533;SDS011;760;48.822;9.304;2023-04-08T18:45:15;5.00;;;4.57;;
1533;SDS011;760;48.822;9.304;2023-04-08T18:47:40;4.87;;;4.47;;
1533;SDS011;760;48.822;9.304;2023-04-08T18:50:06;6.23;;;5.47;;
1533;SDS011;760;48.822;9.304;2023-04-08T18:52:32;4.72;;;4.30;;
1533;SDS011;760;48.822;9.304;2023-04-08T18:54:58;3.97;;;3.63;;
1533;SDS011;760;48.822;9.304;2023-04-08T18:57:24;4.90;;;4.50;;
1533;SDS011;760;48.822;9.304;2023-04-08T18:59:50;4.57;;;3.87;;
1533;SDS011;760;48.822;9.304;2023-04-08T19:02:15;4.90;;;4.47;;
1533;SDS011;760;48.822;9.304;2023-04-08T19:04:41;4.67;;;4.30;;
1533;SDS011;760;48.822;9.304;2023-04-08T19:07:07;4.60;;;4.20;;
1533;SDS011;760;48.822;9.304;2023-04-08T19:09:33;4.65;;;3.80;;
1533;SDS011;760;48.822;9.304;2023-04-08T19:11:58;5.17;;;4.30;;
1533;SDS011;760;48.822;9.304;2023-04-08T19:14:24;5.00;;;4.43;;
1533;SDS011;760;48.822;9.304;2023-04-08T19:16:50;5.50;;;4.73;;
1533;SDS011;760;48.822;9.304;2023-04-08T19:19:15;6.93;;;5.40;;
1533;SDS011;760;48.822;9.304;2023-04-08T19:21:41;6.60;;;5.90;;
1533;SDS011;760;48.822;9.304;2023-04-08T19:24:07;6.57;;;5.20;;
1533;SDS011;760;48.822;9.304;2023-04-08T19:26:34;6.10;;;5.60;;
1533;SDS011;760;48.822;9.304;2023-04-08T19:29:00;6.00;;;5.20;;
1533;SDS011;760;48.822;9.304;2023-04-08T19:31:26;5.57;;;5.00;;
1533;SDS011;760;48.822;9.304;2023-04-08T19:33:51;6.97;;;6.00;;
1533;SDS011;760;48.822;9.304;2023-04-08T19:36:19;7.15;;;6.53;;
1533;SDS011;760;48.822;9.304;2023-04-08T19:38:45;6.40;;;5.23;;
1533;SDS011;760;48.822;9.304;2023-04-08T19:41:11;7.40;;;5.57;;